Time;durP1;ratioP1;P1;durP2;ratioP2;P2;SDS_P1;SDS_P2;PMS_P1;PMS_P2;Temp;Humidity;BMP_temperature;BMP_pressure;BME280_temperature;BME280_humidity;BME280_pressure;Samples;Min_cycle;Max_cycle;Signal;HPM_P1;HPM_P2
2024/01/15 00:04:08;;;;;;;11.63;6.50;;;;;;;-0.52;100.00;101227.09;5036236;28;20112;-74
2024/01/15 00:06:33;;;;;;;15.23;6.35;;;;;;;-0.61;100.00;101244.31;5005441;28;20451;-74
2024/01/15 00:08:59;;;;;;;9.63;6.10;;;;;;;-0.68;100.00;101237.72;5021114;28;20052;-75
2024/01/15 00:11:24;;;;;;;12.88;6.38;;;;;;;-0.75;100.00;101234.59;5021128;28;20128;-74
2024/01/15 00:13:50;;;;;;;10.20;5.85;;;;;;;-0.88;100.00;101233.63;5021103;28;20455;-74
2024/01/15 00:16:16;;;;;;;13.73;7.25;;;;;;;-0.97;100.00;101231.53;5053891;28;20406;-74
2024/01/15 00:18:41;;;;;;;20.85;9.05;;;;;;;-0.97;100.00;101228.91;5020714;28;20033;-74
2024/01/15 00:21:07;;;;;;;20.95;9.00;;;;;;;-0.89;100.00;101229.28;5037254;28;20025;-74
2024/01/15 00:23:33;;;;;;;17.83;8.40;;;;;;;-0.81;100.00;101224.41;5020778;28;20037;-74
2024/01/15 00:25:58;;;;;;;12.00;6.93;;;;;;;-0.71;100.00;101222.91;5020839;28;20047;-74
2024/01/15 00:28:24;;;;;;;16.27;7.50;;;;;;;-0.57;100.00;101230.00;5037125;28;20041;-74
2024/01/15 00:30:50;;;;;;;14.95;7.65;;;;;;;-0.47;100.00;101225.88;5020763;28;20033;-73
2024/01/15 00:33:15;;;;;;;14.43;7.32;;;;;;;-0.42;100.00;101225.59;5036965;28;20036;-73
2024/01/15 00:35:41;;;;;;;10.77;5.75;;;;;;;-0.39;100.00;101216.63;5020675;28;20044;-73
2024/01/15 00:38:07;;;;;;;13.60;6.90;;;;;;;-0.37;100.00;101220.00;5036916;28;20471;-73
2024/01/15 00:40:33;;;;;;;15.48;6.15;;;;;;;-0.35;100.00;101218.97;5034852;28;20040;-73
2024/01/15 00:42:59;;;;;;;11.93;6.38;;;;;;;-0.31;100.00;101219.66;5035393;28;20427;-74
2024/01/15 00:45:24;;;;;;;11.05;6.28;;;;;;;-0.21;100.00;101218.16;5051465;28;20109;-74
2024/01/15 00:47:50;;;;;;;15.65;7.55;;;;;;;-0.06;100.00;101203.94;5019826;28;20040;-74
2024/01/15 00:50:17;;;;;;;16.90;7.95;;;;;;;0.05;100.00;101200.63;5035922;28;20036;-74
2024/01/15 00:52:42;;;;;;;10.32;5.95;;;;;;;0.18;100.00;101198.06;5019951;28;20083;-74
2024/01/15 00:55:08;;;;;;;12.93;6.50;;;;;;;0.30;100.00;101199.06;5020120;28;20088;-73
2024/01/15 00:57:34;;;;;;;8.80;3.50;;;;;;;0.40;100.00;101194.91;5020125;28;20025;-73
2024/01/15 00:59:59;;;;;;;6.78;3.45;;;;;;;0.51;100.00;101186.25;5020246;28;20040;-73
2024/01/15 01:02:26;;;;;;;16.50;5.78;;;;;;;0.65;100.00;101186.19;5020163;28;20041;-74
2024/01/15 01:04:52;;;;;;;12.15;4.95;;;;;;;0.69;100.00;101174.47;5003128;28;20033;-74
2024/01/15 01:07:17;;;;;;;7.22;4.15;;;;;;;0.71;100.00;101177.81;5036352;28;20059;-73
2024/01/15 01:09:43;;;;;;;12.70;7.32;;;;;;;0.75;100.00;101176.69;5019876;28;20045;-74
2024/01/15 01:12:09;;;;;;;6.13;3.83;;;;;;;0.78;100.00;101176.47;5020021;28;20033;-74
2024/01/15 01:14:36;;;;;;;9.45;6.10;;;;;;;0.81;100.00;101175.44;5052551;28;20040;-74
2024/01/15 01:17:01;;;;;;;8.25;3.97;;;;;;;0.84;100.00;101172.56;5019965;28;20037;-73
2024/01/15 01:19:27;;;;;;;6.35;3.35;;;;;;;0.86;100.00;101168.03;5019568;28;20079;-74
2024/01/15 01:22:03;;;;;;;12.13;5.70;;;;;;;0.87;100.00;101167.94;5019439;28;20039;-74
2024/01/15 01:25:01;;;;;;;5.72;3.17;;;;;;;0.88;100.00;101169.63;5024842;28;20087;-73
2024/01/15 01:27:36;;;;;;;7.18;3.70;;;;;;;0.95;100.00;101169.19;5019419;28;20037;-73
2024/01/15 01:30:12;;;;;;;10.15;4.10;;;;;;;1.00;100.00;101162.63;5019057;28;20086;-74
2024/01/15 01:32:53;;;;;;;14.57;6.22;;;;;;;1.02;100.00;101159.88;5035665;28;20089;-74
2024/01/15 01:35:22;;;;;;;10.50;5.15;;;;;;;0.99;100.00;101160.09;5036090;28;20039;-73
2024/01/15 01:37:48;;;;;;;10.23;5.18;;;;;;;0.97;100.00;101162.84;5035872;28;20025;-73
2024/01/15 01:40:14;;;;;;;10.32;4.57;;;;;;;0.96;100.00;101166.47;5036019;28;20044;-73
2024/01/15 01:42:40;;;;;;;7.43;3.92;;;;;;;0.98;100.00;101158.38;5019541;28;20044;-73
2024/01/15 01:45:06;;;;;;;15.90;6.68;;;;;;;1.00;100.00;101154.69;5019638;28;20041;-73
2024/01/15 01:47:32;;;;;;;3.67;2.60;;;;;;;1.01;100.00;101159.06;5019495;28;20032;-74
2024/01/15 01:49:57;;;;;;;6.43;4.07;;;;;;;1.02;100.00;101163.38;5019705;28;20044;-73
2024/01/15 01:52:23;;;;;;;7.57;3.58;;;;;;;1.04;100.00;101164.13;5052594;28;20379;-73
2024/01/15 01:54:49;;;;;;;7.15;4.00;;;;;;;1.04;100.00;101153.53;5019529;28;20068;-73
2024/01/15 01:57:15;;;;;;;8.90;3.53;;;;;;;0.97;100.00;101139.00;5019307;28;20051;-73
2024/01/15 01:59:41;;;;;;;8.13;4.15;;;;;;;1.03;100.00;101150.97;5019799;28;20040;-73
2024/01/15 02:02:06;;;;;;;7.18;3.08;;;;;;;0.98;100.00;101147.78;5019450;28;20486;-74
2024/01/15 02:04:32;;;;;;;12.32;3.63;;;;;;;1.01;100.00;101145.81;5035832;28;20124;-73
2024/01/15 02:06:59;;;;;;;6.35;3.22;;;;;;;1.07;100.00;101155.13;5036038;28;20036;-73
2024/01/15 02:09:25;;;;;;;11.95;4.93;;;;;;;1.09;100.00;101150.59;5052227;28;20039;-73
2024/01/15 02:11:51;;;;;;;8.18;4.80;;;;;;;1.07;100.00;101145.38;5019143;28;20033;-74
2024/01/15 02:14:17;;;;;;;15.65;6.57;;;;;;;1.08;100.00;101149.72;5019287;28;20033;-73
2024/01/15 02:16:44;;;;;;;7.72;3.70;;;;;;;1.07;100.00;101139.25;5053713;28;20040;-73
2024/01/15 02:19:19;;;;;;;10.35;5.38;;;;;;;1.04;100.00;101142.09;5039328;28;20025;-73
2024/01/15 02:21:45;;;;;;;9.15;4.10;;;;;;;1.06;100.00;101149.00;5056119;28;20036;-73
2024/01/15 02:24:11;;;;;;;10.13;5.28;;;;;;;1.06;100.00;101140.22;5023058;28;20106;-74
2024/01/15 02:26:38;;;;;;;5.32;2.83;;;;;;;1.05;100.00;101141.97;5022934;28;20041;-73
2024/01/15 02:29:05;;;;;;;3.65;2.45;;;;;;;1.01;100.00;101143.16;5039340;28;20360;-74
2024/01/15 02:31:30;;;;;;;2.42;1.60;;;;;;;0.98;100.00;101138.09;5039275;28;20040;-73
2024/01/15 02:33:56;;;;;;;3.83;1.77;;;;;;;0.97;100.00;101135.53;5022831;28;20041;-73
2024/01/15 02:36:22;;;;;;;8.48;2.75;;;;;;;0.92;100.00;101142.94;5022869;28;20037;-74
2024/01/15 02:38:47;;;;;;;4.03;1.90;;;;;;;0.78;100.00;101141.22;5039031;28;20047;-73
2024/01/15 02:41:14;;;;;;;3.45;1.95;;;;;;;0.63;100.00;101133.34;5022745;28;20037;-73
2024/01/15 02:43:41;;;;;;;4.68;1.88;;;;;;;0.43;100.00;101134.69;5022804;28;20082;-73
2024/01/15 02:46:06;;;;;;;6.47;2.03;;;;;;;0.24;100.00;101133.34;5055557;28;20153;-73
2024/01/15 02:48:34;;;;;;;4.95;2.08;;;;;;;0.16;100.00;101136.47;5022321;28;20503;-73
2024/01/15 02:51:00;;;;;;;5.07;2.20;;;;;;;0.04;100.00;101134.63;5006797;28;20048;-73
2024/01/15 02:53:26;;;;;;;1.25;0.90;;;;;;;-0.05;100.00;101139.56;5022437;28;20102;-73
2024/01/15 02:55:52;;;;;;;4.40;1.90;;;;;;;-0.03;100.00;101137.69;5022524;28;20460;-74
2024/01/15 02:58:17;;;;;;;6.13;2.75;;;;;;;-0.09;100.00;101135.41;5022262;28;20040;-74
2024/01/15 03:00:43;;;;;;;2.33;1.42;;;;;;;-0.13;100.00;101139.22;5022447;28;20037;-74
2024/01/15 03:03:09;;;;;;;8.32;2.50;;;;;;;-0.11;100.00;101139.94;5038822;28;20507;-73
2024/01/15 03:05:35;;;;;;;5.25;2.40;;;;;;;-0.13;100.00;101136.56;5023163;28;20048;-74
2024/01/15 03:08:01;;;;;;;5.30;2.72;;;;;;;-0.20;100.00;101127.31;5022312;28;20464;-73
2024/01/15 03:10:26;;;;;;;6.97;2.92;;;;;;;-0.10;100.00;101135.53;5022237;28;20041;-73
2024/01/15 03:12:52;;;;;;;7.93;2.75;;;;;;;-0.06;100.00;101127.28;5022154;28;20427;-73
2024/01/15 03:15:18;;;;;;;8.48;3.13;;;;;;;-0.24;100.00;101126.69;5038436;28;20029;-74
2024/01/15 03:17:44;;;;;;;6.07;2.58;;;;;;;-0.38;100.00;101128.50;5022094;28;20399;-74
2024/01/15 03:20:10;;;;;;;5.55;2.03;;;;;;;-0.51;100.00;101131.88;5021942;28;20467;-73
2024/01/15 03:22:36;;;;;;;1.23;0.98;;;;;;;-0.48;100.00;101134.38;5038558;28;20041;-73
2024/01/15 03:25:03;;;;;;;1.77;1.40;;;;;;;-0.34;100.00;101130.00;5038382;28;20039;-73
2024/01/15 03:27:29;;;;;;;2.72;1.67;;;;;;;-0.18;100.00;101121.97;5054543;28;20485;-74
2024/01/15 03:29:55;;;;;;;5.50;1.80;;;;;;;-0.08;100.00;101126.56;5054449;28;20100;-73
2024/01/15 03:32:21;;;;;;;8.77;2.70;;;;;;;-0.08;100.00;101123.91;5038096;28;20464;-73
2024/01/15 03:34:47;;;;;;;1.20;0.98;;;;;;;-0.05;100.00;101120.22;5038108;28;20052;-74
2024/01/15 03:37:13;;;;;;;6.63;2.75;;;;;;;0.07;100.00;101115.94;5021739;28;20037;-73
2024/01/15 03:39:39;;;;;;;2.05;1.33;;;;;;;0.17;100.00;101120.53;5021637;28;20395;-74
2024/01/15 03:42:04;;;;;;;7.15;2.17;;;;;;;0.28;100.00;101114.53;5038023;28;20044;-74
2024/01/15 03:44:30;;;;;;;1.58;1.10;;;;;;;0.35;100.00;101115.81;5021606;28;20082;-74
2024/01/15 03:46:56;;;;;;;4.40;1.77;;;;;;;0.38;100.00;101107.69;5021272;28;20399;-73
2024/01/15 03:49:21;;;;;;;1.48;0.93;;;;;;;0.42;100.00;101118.91;5021284;28;20110;-74
2024/01/15 03:51:47;;;;;;;3.33;1.10;;;;;;;0.41;100.00;101111.94;5021480;28;20387;-73
2024/01/15 03:54:13;;;;;;;3.25;1.30;;;;;;;0.39;100.00;101114.66;5037822;28;20029;-74
2024/01/15 03:56:38;;;;;;;5.72;1.80;;;;;;;0.45;100.00;101108.13;5021367;28;20041;-73
2024/01/15 03:59:04;;;;;;;2.35;1.55;;;;;;;0.60;100.00;101108.91;5021955;28;20033;-73
2024/01/15 04:01:30;;;;;;;2.92;1.17;;;;;;;0.64;100.00;101095.34;5021319;28;20379;-74
2024/01/15 04:03:55;;;;;;;4.55;1.23;;;;;;;0.51;100.00;101102.44;5021240;28;20045;-74
2024/01/15 04:06:21;;;;;;;5.10;1.63;;;;;;;0.22;100.00;101109.66;5037467;28;20041;-74
2024/01/15 04:08:47;;;;;;;3.22;1.70;;;;;;;-0.03;100.00;101107.72;5037605;28;20124;-74
2024/01/15 04:11:12;;;;;;;6.53;1.92;;;;;;;-0.15;100.00;101104.09;5037441;28;20029;-74
2024/01/15 04:13:38;;;;;;;2.25;1.45;;;;;;;-0.37;100.00;101103.75;5021024;28;20044;-73
2024/01/15 04:16:04;;;;;;;3.85;1.83;;;;;;;-0.61;100.00;101116.72;5021012;28;20036;-73
2024/01/15 04:18:30;;;;;;;3.42;1.33;;;;;;;-0.78;100.00;101107.19;5053530;28;20040;-73
2024/01/15 04:20:56;;;;;;;2.85;1.30;;;;;;;-0.77;100.00;101108.88;5055015;28;20391;-73
2024/01/15 04:23:22;;;;;;;1.98;1.10;;;;;;;-0.89;100.00;101106.06;5020566;28;20029;-74
2024/01/15 04:25:48;;;;;;;7.18;1.52;;;;;;;-0.92;100.00;101106.25;5037392;28;20029;-73
2024/01/15 04:28:14;;;;;;;4.75;1.85;;;;;;;-1.08;100.00;101108.13;5020744;28;20051;-73
2024/01/15 04:30:40;;;;;;;2.00;1.42;;;;;;;-1.05;100.00;101105.28;5020589;28;20037;-74
2024/01/15 04:33:05;;;;;;;5.53;1.67;;;;;;;-0.84;100.00;101110.22;5020574;28;20384;-73
2024/01/15 04:35:31;;;;;;;3.72;1.77;;;;;;;-0.89;100.00;101110.50;5037088;28;20040;-73
2024/01/15 04:37:57;;;;;;;3.28;1.75;;;;;;;-0.76;100.00;101121.16;5004148;28;20045;-73
2024/01/15 04:40:23;;;;;;;14.55;2.83;;;;;;;-0.84;100.00;101116.34;5019443;28;20025;-73
2024/01/15 04:42:48;;;;;;;8.10;2.53;;;;;;;-0.97;100.00;101110.13;5020511;28;20127;-73
2024/01/15 04:45:14;;;;;;;4.82;1.73;;;;;;;-1.25;100.00;101106.47;5020514;28;20040;-73
2024/01/15 04:47:40;;;;;;;6.22;2.22;;;;;;;-1.52;100.00;101111.59;5020164;28;20068;-74
2024/01/15 04:50:06;;;;;;;5.25;1.77;;;;;;;-1.65;100.00;101114.09;5020797;28;20033;-73
2024/01/15 04:52:32;;;;;;;7.32;1.88;;;;;;;-1.70;100.00;101115.31;5020418;28;20037;-73
2024/01/15 04:54:58;;;;;;;4.82;1.92;;;;;;;-1.95;100.00;101103.53;5053179;28;20060;-73
2024/01/15 04:57:23;;;;;;;4.47;2.00;;;;;;;-2.07;100.00;101109.47;5020260;28;20435;-73
2024/01/15 04:59:49;;;;;;;4.40;2.17;;;;;;;-2.02;100.00;101121.47;5020240;28;20357;-73
2024/01/15 05:02:14;;;;;;;4.00;1.90;;;;;;;-2.13;100.00;101112.47;5021047;28;20106;-73
2024/01/15 05:04:40;;;;;;;4.13;1.95;;;;;;;-2.35;100.00;101118.09;5019851;28;20452;-73
2024/01/15 05:07:06;;;;;;;4.95;1.70;;;;;;;-2.45;100.00;101118.56;5052984;28;20032;-73
2024/01/15 05:09:31;;;;;;;2.30;1.55;;;;;;;-2.37;100.00;101114.69;5052996;28;20520;-73
2024/01/15 05:11:57;;;;;;;7.38;2.03;;;;;;;-2.22;100.00;101114.69;5019730;28;20028;-73
2024/01/15 05:14:22;;;;;;;8.65;2.25;;;;;;;-2.27;100.00;101118.50;5052577;28;20029;-73
2024/01/15 05:16:51;;;;;;;4.90;1.92;;;;;;;-2.38;100.00;101123.50;5019973;28;20043;-73
2024/01/15 05:19:18;;;;;;;3.53;1.77;;;;;;;-2.41;100.00;101124.50;5019708;28;20048;-73
2024/01/15 05:21:43;;;;;;;6.20;2.17;;;;;;;-2.33;100.00;101119.69;5019898;28;20032;-73
2024/01/15 05:24:09;;;;;;;6.03;2.80;;;;;;;-2.15;100.00;101111.69;5036288;28;20029;-73
2024/01/15 05:26:35;;;;;;;8.20;2.50;;;;;;;-2.05;100.00;101115.53;5019753;28;20071;-74
2024/01/15 05:29:00;;;;;;;6.30;1.52;;;;;;;-2.07;100.00;101107.69;5019757;28;20037;-73
2024/01/15 05:31:26;;;;;;;7.07;2.25;;;;;;;-1.99;100.00;101116.00;5020350;28;20045;-73
2024/01/15 05:33:51;;;;;;;6.97;2.50;;;;;;;-1.99;100.00;101115.16;5035986;28;20473;-73
2024/01/15 05:36:17;;;;;;;6.45;1.90;;;;;;;-2.17;100.00;101110.94;5020318;28;20033;-73
2024/01/15 05:38:43;;;;;;;3.65;1.67;;;;;;;-2.42;100.00;101111.44;5035690;28;20379;-73
2024/01/15 05:41:15;;;;;;;6.82;1.70;;;;;;;-2.55;100.00;101113.88;5019043;28;20120;-73
2024/01/15 05:43:47;;;;;;;2.45;1.65;;;;;;;-2.49;100.00;101114.41;5035940;28;20071;-74
2024/01/15 05:46:29;;;;;;;6.50;1.67;;;;;;;-2.38;100.00;101116.47;5020380;28;20036;-73
2024/01/15 05:48:58;;;;;;;5.15;1.67;;;;;;;-2.02;100.00;101091.63;5038125;28;20161;-73
2024/01/15 05:51:44;;;;;;;4.68;1.70;;;;;;;-1.63;100.00;101104.31;5034275;28;20506;-73
2024/01/15 05:54:20;;;;;;;4.15;1.35;;;;;;;-1.71;100.00;101095.16;5035393;28;20476;-73
2024/01/15 05:57:04;;;;;;;5.25;1.50;;;;;;;-1.84;100.00;101103.75;5051793;28;20391;-74
2024/01/15 05:59:47;;;;;;;3.80;1.35;;;;;;;-1.85;100.00;101106.50;5020483;28;20469;-73
2024/01/15 06:02:22;;;;;;;3.50;1.30;;;;;;;-1.78;100.00;101113.09;5037071;28;20547;-74
2024/01/15 06:04:47;;;;;;;3.78;1.13;;;;;;;-1.83;100.00;101113.34;5035849;28;20131;-73
2024/01/15 06:07:13;;;;;;;3.13;1.42;;;;;;;-1.94;100.00;101113.13;5019408;28;20043;-73
2024/01/15 06:09:38;;;;;;;7.22;1.65;;;;;;;-2.08;100.00;101113.06;5019363;28;20033;-73
2024/01/15 06:12:06;;;;;;;3.70;1.58;;;;;;;-2.16;100.00;101112.66;5019395;28;20048;-73
2024/01/15 06:14:32;;;;;;;2.88;1.20;;;;;;;-2.23;100.00;101123.50;5052505;28;20040;-73
2024/01/15 06:16:58;;;;;;;4.80;1.35;;;;;;;-2.48;100.00;101128.44;5036557;28;20037;-73
2024/01/15 06:19:49;;;;;;;3.83;1.30;;;;;;;-2.75;100.00;101118.44;5051979;28;20434;-73
2024/01/15 06:22:35;;;;;;;2.55;1.05;;;;;;;-2.66;100.00;101117.94;5037233;28;20373;-73
2024/01/15 06:25:39;;;;;;;3.95;1.13;;;;;;;-2.40;100.00;101120.13;5052587;28;20041;-74
2024/01/15 06:28:32;;;;;;;3.83;1.58;;;;;;;-2.40;100.00;101104.31;5037199;28;20069;-73
2024/01/15 06:31:31;;;;;;;8.70;1.40;;;;;;;-2.60;100.00;101097.50;5036303;28;20087;-74
2024/01/15 06:34:15;;;;;;;4.85;1.40;;;;;;;-2.79;100.00;101123.94;5023965;28;20122;-73
2024/01/15 06:37:01;;;;;;;3.17;1.55;;;;;;;-3.13;100.00;101121.28;5035967;28;20048;-74
2024/01/15 06:39:42;;;;;;;6.72;1.23;;;;;;;-3.18;100.00;101127.72;5019905;28;20037;-73
2024/01/15 06:42:26;;;;;;;9.77;1.63;;;;;;;-3.22;100.00;101118.31;5022561;28;20494;-73
2024/01/15 06:44:52;;;;;;;3.05;1.33;;;;;;;-3.41;100.00;101135.00;5051733;28;20032;-73
2024/01/15 06:47:20;;;;;;;6.68;1.50;;;;;;;-3.37;100.00;101147.06;5051833;28;20037;-73
2024/01/15 06:49:46;;;;;;;15.30;2.13;;;;;;;-3.55;100.00;101145.34;5018723;28;20407;-73
2024/01/15 06:52:12;;;;;;;3.00;1.25;;;;;;;-3.47;100.00;101144.97;5034958;28;20029;-73
2024/01/15 06:54:38;;;;;;;6.95;1.83;;;;;;;-3.30;100.00;101137.09;5019079;28;20037;-73
2024/01/15 06:57:04;;;;;;;4.75;1.80;;;;;;;-3.42;100.00;101137.69;5018921;28;20147;-73
2024/01/15 06:59:29;;;;;;;2.55;1.50;;;;;;;-3.67;100.00;101138.94;5018605;28;20041;-73
2024/01/15 07:01:55;;;;;;;6.97;1.73;;;;;;;-3.71;100.00;101132.09;5034675;28;20049;-74
2024/01/15 07:04:21;;;;;;;6.97;1.70;;;;;;;-3.82;100.00;101131.78;5020922;28;20056;-73
2024/01/15 07:06:48;;;;;;;6.93;1.95;;;;;;;-3.90;100.00;101136.56;5022237;28;20040;-73
2024/01/15 07:09:14;;;;;;;2.15;1.10;;;;;;;-3.97;100.00;101138.63;5022375;28;20029;-73
2024/01/15 07:11:49;;;;;;;2.70;1.50;;;;;;;-3.94;100.00;101142.88;5026722;28;20051;-73
2024/01/15 07:14:47;;;;;;;4.25;2.35;;;;;;;-3.72;100.00;101140.09;5022002;28;20040;-73
2024/01/15 07:17:31;;;;;;;4.15;1.92;;;;;;;-3.73;100.00;101141.00;5053301;28;20060;-74
2024/01/15 07:20:02;;;;;;;3.95;1.90;;;;;;;-3.82;100.00;101139.66;5039426;28;20043;-73
2024/01/15 07:22:27;;;;;;;6.25;2.50;;;;;;;-4.01;100.00;101143.19;5037990;28;20029;-73
2024/01/15 07:24:54;;;;;;;5.45;2.45;;;;;;;-4.09;100.00;101147.09;5021944;28;20456;-73
2024/01/15 07:27:20;;;;;;;7.68;1.92;;;;;;;-4.22;100.00;101139.78;5038056;28;20494;-73
2024/01/15 07:29:45;;;;;;;4.78;2.10;;;;;;;-4.20;100.00;101142.34;5022289;28;20033;-73
2024/01/15 07:32:11;;;;;;;2.53;1.48;;;;;;;-4.03;100.00;101145.03;5021260;28;20033;-74
2024/01/15 07:34:37;;;;;;;4.95;1.58;;;;;;;-4.05;100.00;101152.16;5021777;28;20048;-73
2024/01/15 07:37:03;;;;;;;7.13;1.70;;;;;;;-4.24;100.00;101156.53;5038004;28;20065;-73
2024/01/15 07:39:30;;;;;;;2.72;1.73;;;;;;;-4.41;100.00;101154.69;5021384;28;20075;-73
2024/01/15 07:41:56;;;;;;;2.08;1.70;;;;;;;-4.44;100.00;101158.31;5038241;28;20048;-73
2024/01/15 07:44:22;;;;;;;6.65;1.85;;;;;;;-4.40;100.00;101160.78;5021532;28;20070;-73
2024/01/15 07:46:47;;;;;;;6.35;1.85;;;;;;;-4.33;100.00;101154.34;5038523;28;20048;-73
2024/01/15 07:49:13;;;;;;;6.95;1.60;;;;;;;-4.33;100.00;101160.44;5021456;28;20468;-73
2024/01/15 07:51:43;;;;;;;3.63;1.77;;;;;;;-4.43;100.00;101154.75;5021408;28;20036;-73
2024/01/15 07:54:11;;;;;;;2.25;1.52;;;;;;;-4.50;100.00;101155.09;5038413;28;20033;-73
2024/01/15 07:56:56;;;;;;;2.47;1.63;;;;;;;-4.67;100.00;101155.88;5021523;28;20041;-73
2024/01/15 07:59:22;;;;;;;11.98;2.15;;;;;;;-4.67;100.00;101153.25;5020880;28;20119;-73
2024/01/15 08:01:47;;;;;;;3.63;1.98;;;;;;;-4.65;100.00;101151.41;5037579;28;20120;-73
2024/01/15 08:04:13;;;;;;;5.00;2.13;;;;;;;-4.57;100.00;101148.44;5021142;28;20033;-73
2024/01/15 08:06:39;;;;;;;4.22;2.03;;;;;;;-4.47;100.00;101155.00;5021468;28;20036;-73
2024/01/15 08:09:05;;;;;;;3.78;2.33;;;;;;;-4.49;100.00;101156.81;5037036;28;20025;-73
2024/01/15 08:11:31;;;;;;;6.57;1.95;;;;;;;-4.50;100.00;101155.09;5037487;28;20124;-74
2024/01/15 08:14:06;;;;;;;7.03;2.65;;;;;;;-4.50;100.00;101155.09;5036918;28;20127;-73
2024/01/15 08:16:45;;;;;;;10.30;4.38;;;;;;;-4.39;100.00;101155.50;5053935;28;20021;-73
2024/01/15 08:19:47;;;;;;;8.93;3.38;;;;;;;-4.35;100.00;101158.81;5037611;28;20040;-73
2024/01/15 08:22:56;;;;;;;7.38;3.88;;;;;;;-4.39;100.00;101162.47;4993165;28;20052;-73
2024/01/15 08:26:13;;;;;;;;;;;;;;;;;;;;;
2024/01/15 08:29:49;;;;;;;9.90;4.75;;;;;;;-4.61;100.00;101160.84;4998498;28;20045;-74
2024/01/15 08:37:03;;;;;;;10.27;4.32;;;;;;;-4.52;100.00;101163.06;4970878;28;20069;-73
2024/01/15 08:45:07;;;;;;;4.07;2.67;;;;;;;-4.52;100.00;101141.22;4937560;29;20063;-73
2024/01/15 08:52:51;;;;;;;7.60;3.83;;;;;;;-4.62;100.00;101146.03;5017764;28;20037;-73
2024/01/15 09:07:52;;;;;;;;;;;;;;;;;;;;;
2024/01/15 09:14:30;;;;;;;3.38;2.00;;;;;;;-3.18;100.00;101175.91;4993723;28;20040;-73
2024/01/15 09:17:57;;;;;;;3.08;1.13;;;;;;;-2.89;100.00;101155.16;5020689;28;20116;-73
2024/01/15 09:21:19;;;;;;;2.75;1.10;;;;;;;-2.45;100.00;101176.50;5001613;28;20048;-73
2024/01/15 09:27:26;;;;;;;6.20;2.25;;;;;;;-2.03;100.00;101171.63;5036249;28;20044;-73
2024/01/15 09:29:52;;;;;;;8.63;3.03;;;;;;;-1.92;100.00;101181.56;5051915;28;20021;-73
2024/01/15 09:32:18;;;;;;;7.25;2.47;;;;;;;-1.99;100.00;101186.31;5019586;28;20051;-73
2024/01/15 09:34:44;;;;;;;9.52;2.65;;;;;;;-2.00;100.00;101192.53;5019629;28;20037;-73
2024/01/15 09:37:10;;;;;;;7.88;2.70;;;;;;;-1.88;100.00;101188.34;5052502;28;20040;-73
2024/01/15 09:39:36;;;;;;;9.57;2.22;;;;;;;-1.85;100.00;101190.84;5052204;28;20029;-73
2024/01/15 09:42:02;;;;;;;10.35;1.85;;;;;;;-1.80;100.00;101188.78;5019443;28;20056;-73
2024/01/15 09:44:28;;;;;;;4.18;1.42;;;;;;;-1.64;100.00;101183.50;5019456;28;20041;-73
2024/01/15 09:46:55;;;;;;;9.30;2.03;;;;;;;-1.66;100.00;101186.22;5003092;28;20073;-74
2024/01/15 09:49:21;;;;;;;8.60;2.13;;;;;;;-1.68;100.00;101189.88;5019390;28;20040;-73
2024/01/15 09:51:47;;;;;;;5.40;1.50;;;;;;;-1.77;100.00;101189.47;5036094;28;20037;-73
2024/01/15 09:54:16;;;;;;;2.47;1.25;;;;;;;-1.70;100.00;101179.41;5019363;28;20041;-73
2024/01/15 09:56:45;;;;;;;3.88;1.30;;;;;;;-1.50;100.00;101191.47;5019785;28;20029;-72
2024/01/15 09:59:14;;;;;;;5.38;1.48;;;;;;;-1.18;100.00;101191.41;5035636;28;20094;-73
2024/01/15 10:01:40;;;;;;;2.50;1.20;;;;;;;-1.06;100.00;101195.94;5019426;28;20079;-73
2024/01/15 10:04:06;;;;;;;4.18;1.58;;;;;;;-0.87;100.00;101185.19;5052356;28;20538;-73
2024/01/15 10:06:32;;;;;;;2.08;1.30;;;;;;;-0.59;100.00;101188.78;5035713;28;20125;-73
2024/01/15 10:08:58;;;;;;;3.08;1.25;;;;;;;-0.22;100.00;101192.63;5003809;28;20048;-73
2024/01/15 10:11:24;;;;;;;5.15;1.42;;;;;;;0.03;100.00;101194.59;5051788;28;20438;-73
2024/01/15 10:13:52;;;;;;;1.80;0.95;;;;;;;0.13;100.00;101198.38;5035799;28;20029;-73
2024/01/15 10:16:22;;;;;;;2.75;0.95;;;;;;;0.44;100.00;101197.22;5019511;28;20036;-73
2024/01/15 10:18:48;;;;;;;4.57;1.20;;;;;;;0.94;100.00;101194.00;5035394;28;20057;-73
2024/01/15 10:21:14;;;;;;;3.35;1.23;;;;;;;1.51;100.00;101191.81;5035453;28;20064;-74
2024/01/15 10:23:40;;;;;;;3.70;1.40;;;;;;;2.01;100.00;101193.63;5019480;28;20060;-73
2024/01/15 10:26:05;;;;;;;6.93;1.27;;;;;;;2.09;100.00;101194.81;5019149;28;20385;-74
2024/01/15 10:28:32;;;;;;;6.55;1.30;;;;;;;2.49;100.00;101191.91;5035541;28;20029;-72
2024/01/15 10:31:01;;;;;;;7.72;1.42;;;;;;;3.15;100.00;101194.06;5035274;28;20061;-73
2024/01/15 10:33:27;;;;;;;8.02;2.80;;;;;;;3.76;100.00;101197.28;5051825;28;20045;-73
2024/01/15 10:35:55;;;;;;;9.23;3.42;;;;;;;3.98;100.00;101215.06;5034934;28;20476;-73
2024/01/15 10:38:24;;;;;;;10.90;3.20;;;;;;;3.80;100.00;101206.72;5053700;28;20365;-73
2024/01/15 10:40:54;;;;;;;6.70;1.90;;;;;;;3.79;100.00;101215.66;5038982;28;20037;-73
2024/01/15 10:43:20;;;;;;;7.45;2.45;;;;;;;3.88;100.00;101220.25;5023175;28;20063;-73
2024/01/15 10:45:46;;;;;;;9.57;5.50;;;;;;;3.47;100.00;101211.03;5038420;28;20033;-73
2024/01/15 10:48:31;;;;;;;9.35;4.85;;;;;;;3.01;100.00;101217.19;5021669;28;20035;-72
2024/01/15 10:51:10;;;;;;;6.85;3.90;;;;;;;2.44;100.00;101214.44;5040282;28;20045;-72
2024/01/15 10:53:39;;;;;;;10.80;4.30;;;;;;;2.02;100.00;101220.06;5022972;28;20132;-72
2024/01/15 10:56:05;;;;;;;15.57;6.45;;;;;;;1.86;100.00;101219.47;5054512;28;20033;-72
2024/01/15 10:58:31;;;;;;;6.82;3.03;;;;;;;1.91;100.00;101212.88;5022151;28;20029;-72
2024/01/15 11:00:57;;;;;;;7.03;3.25;;;;;;;1.93;100.00;101210.97;5021716;28;20043;-72
2024/01/15 11:03:23;;;;;;;6.72;3.60;;;;;;;1.84;100.00;101216.91;5038397;28;20025;-72
2024/01/15 11:05:49;;;;;;;7.82;2.42;;;;;;;1.83;100.00;101219.69;5022149;28;20032;-73
2024/01/15 11:08:18;;;;;;;5.57;2.17;;;;;;;1.80;100.00;101219.88;5022191;28;20033;-72
2024/01/15 11:10:52;;;;;;;7.05;2.70;;;;;;;1.92;100.00;101224.31;5038603;28;20029;-73
2024/01/15 11:13:33;;;;;;;5.57;2.17;;;;;;;2.06;100.00;101225.97;5039571;28;20040;-73
2024/01/15 11:16:09;;;;;;;6.53;2.85;;;;;;;2.11;100.00;101221.19;5038303;28;20036;-73
2024/01/15 11:18:43;;;;;;;7.88;2.85;;;;;;;1.94;100.00;101227.72;5038554;28;20065;-75
2024/01/15 11:21:15;;;;;;;;;;;;;;;1.77;100.00;101226.22;5038535;28;20039;-72
2024/01/15 11:23:56;;;;;;;6.88;3.08;;;;;;;1.71;100.00;101222.22;5038272;28;19920;-75
2024/01/15 11:26:31;;;;;;;6.85;3.80;;;;;;;1.96;100.00;101225.81;5038515;28;20065;-72
2024/01/15 11:28:59;;;;;;;7.10;4.15;;;;;;;2.01;100.00;101223.66;5038000;28;20060;-72
2024/01/15 11:31:51;;;;;;;5.50;2.78;;;;;;;2.09;100.00;101223.09;5053972;28;20063;-73
2024/01/15 11:34:17;;;;;;;4.65;2.17;;;;;;;2.24;100.00;101221.16;5035055;28;20072;-75
2024/01/15 11:36:46;;;;;;;4.72;2.13;;;;;;;2.35;100.00;101219.41;5021453;28;20518;-72
2024/01/15 11:39:27;;;;;;;11.32;4.65;;;;;;;2.49;100.00;101218.44;5037556;28;20052;-75
2024/01/15 11:41:55;;;;;;;14.32;7.82;;;;;;;2.49;100.00;101221.09;5037809;28;20037;-74
2024/01/15 11:44:21;;;;;;;7.95;4.28;;;;;;;2.36;100.00;101218.47;5037982;28;20088;-72
2024/01/15 11:46:58;;;;;;;8.75;5.63;;;;;;;2.36;100.00;101213.19;5054203;28;20456;-75
2024/01/15 11:50:05;;;;;;;21.52;12.57;;;;;;;2.46;100.00;101209.84;5020768;28;20037;-74
2024/01/15 11:52:44;;;;;;;19.65;11.07;;;;;;;2.45;100.00;101206.34;5054485;28;20459;-74
2024/01/15 11:55:38;;;;;;;6.78;3.97;;;;;;;2.46;100.00;101199.22;5037389;28;20060;-74
2024/01/15 11:58:09;;;;;;;10.20;4.03;;;;;;;2.46;100.00;101201.88;5037563;28;20037;-74
2024/01/15 12:00:39;;;;;;;8.52;4.47;;;;;;;2.47;100.00;101203.59;5021931;28;20033;-74
2024/01/15 12:03:06;;;;;;;11.00;5.55;;;;;;;2.54;100.00;101195.06;5037489;28;20033;-74
2024/01/15 12:05:31;;;;;;;36.80;17.02;;;;;;;2.49;100.00;101201.63;5021225;28;20040;-74
2024/01/15 12:07:57;;;;;;;11.95;5.38;;;;;;;2.45;100.00;101195.72;5021164;28;20128;-74
2024/01/15 12:10:23;;;;;;;7.63;3.85;;;;;;;2.45;100.00;101201.03;5020929;28;20033;-74
2024/01/15 12:12:59;;;;;;;26.35;15.32;;;;;;;2.38;100.00;101199.78;5021184;28;20041;-73